sensor_id;sensor_type;location;lat;lon;timestamp;temperature;humidity
68433;DHT22;55412;51.350;17.056;2022-11-20T00:01:10;-2.80;68.00
68433;DHT22;55412;51.350;17.056;2022-11-20T00:03:41;-2.80;68.50
68433;DHT22;55412;51.350;17.056;2022-11-20T00:06:10;-2.80;68.10
68433;DHT22;55412;51.350;17.056;2022-11-20T00:08:37;-2.90;68.40
68433;DHT22;55412;51.350;17.056;2022-11-20T00:11:08;-2.90;69.00
68433;DHT22;55412;51.350;17.056;2022-11-20T00:13:36;-2.90;68.60
68433;DHT22;55412;51.350;17.056;2022-11-20T00:16:04;-2.80;68.40
68433;DHT22;55412;51.350;17.056;2022-11-20T00:18:32;-2.80;68.10
68433;DHT22;55412;51.350;17.056;2022-11-20T00:21:07;-2.80;68.00
68433;DHT22;55412;51.350;17.056;2022-11-20T00:23:36;-2.80;68.10
68433;DHT22;55412;51.350;17.056;2022-11-20T00:26:08;-2.80;67.90
68433;DHT22;55412;51.350;17.056;2022-11-20T00:28:36;-2.80;68.10
68433;DHT22;55412;51.350;17.056;2022-11-20T00:31:03;-2.80;67.70
68433;DHT22;55412;51.350;17.056;2022-11-20T00:33:33;-2.80;68.00
68433;DHT22;55412;51.350;17.056;2022-11-20T00:36:06;-2.80;67.70
68433;DHT22;55412;51.350;17.056;2022-11-20T00:38:34;-2.80;67.90
68433;DHT22;55412;51.350;17.056;2022-11-20T00:41:02;-2.80;67.90
68433;DHT22;55412;51.350;17.056;2022-11-20T00:43:30;-2.70;67.80
68433;DHT22;55412;51.350;17.056;2022-11-20T00:46:04;-2.80;67.50
68433;DHT22;55412;51.350;17.056;2022-11-20T00:48:34;-2.80;67.50
68433;DHT22;55412;51.350;17.056;2022-11-20T00:51:01;-2.90;67.70
68433;DHT22;55412;51.350;17.056;2022-11-20T00:53:27;-3.00;68.00
68433;DHT22;55412;51.350;17.056;2022-11-20T00:55:58;-3.00;67.80
68433;DHT22;55412;51.350;17.056;2022-11-20T00:58:30;-3.00;67.50
68433;DHT22;55412;51.350;17.056;2022-11-20T01:03:49;-3.30;68.40
68433;DHT22;55412;51.350;17.056;2022-11-20T01:06:21;-3.40;69.10
68433;DHT22;55412;51.350;17.056;2022-11-20T01:08:50;-3.40;69.70
68433;DHT22;55412;51.350;17.056;2022-11-20T01:11:26;-3.50;70.20
68433;DHT22;55412;51.350;17.056;2022-11-20T01:13:55;-3.60;70.90
68433;DHT22;55412;51.350;17.056;2022-11-20T01:16:36;-3.70;71.50
68433;DHT22;55412;51.350;17.056;2022-11-20T01:19:06;-3.80;72.10
68433;DHT22;55412;51.350;17.056;2022-11-20T01:21:37;-3.90;72.40
68433;DHT22;55412;51.350;17.056;2022-11-20T01:24:08;-4.00;72.60
68433;DHT22;55412;51.350;17.056;2022-11-20T01:26:38;-4.00;72.90
68433;DHT22;55412;51.350;17.056;2022-11-20T01:29:13;-4.00;73.30
68433;DHT22;55412;51.350;17.056;2022-11-20T01:31:40;-4.00;73.60
68433;DHT22;55412;51.350;17.056;2022-11-20T01:34:11;-4.00;73.60
68433;DHT22;55412;51.350;17.056;2022-11-20T01:36:39;-4.00;73.60
68433;DHT22;55412;51.350;17.056;2022-11-20T01:39:14;-3.90;73.50
68433;DHT22;55412;51.350;17.056;2022-11-20T01:41:43;-3.90;73.30
68433;DHT22;55412;51.350;17.056;2022-11-20T01:44:56;-3.90;73.40
68433;DHT22;55412;51.350;17.056;2022-11-20T01:47:43;-3.90;73.70
68433;DHT22;55412;51.350;17.056;2022-11-20T01:50:23;-3.90;73.70
68433;DHT22;55412;51.350;17.056;2022-11-20T01:53:07;-3.90;73.50
68433;DHT22;55412;51.350;17.056;2022-11-20T01:55:37;-3.90;73.10
68433;DHT22;55412;51.350;17.056;2022-11-20T01:58:06;-3.90;72.90
68433;DHT22;55412;51.350;17.056;2022-11-20T02:00:32;-3.90;73.10
68433;DHT22;55412;51.350;17.056;2022-11-20T02:03:02;-3.90;73.10
68433;DHT22;55412;51.350;17.056;2022-11-20T02:05:56;-3.90;73.20
68433;DHT22;55412;51.350;17.056;2022-11-20T02:08:23;-3.90;73.20
68433;DHT22;55412;51.350;17.056;2022-11-20T02:10:50;-3.90;73.00
68433;DHT22;55412;51.350;17.056;2022-11-20T02:13:16;-3.90;72.90
68433;DHT22;55412;51.350;17.056;2022-11-20T02:16:01;-3.90;73.20
68433;DHT22;55412;51.350;17.056;2022-11-20T02:18:30;-3.90;73.10
68433;DHT22;55412;51.350;17.056;2022-11-20T02:21:07;-4.00;73.30
68433;DHT22;55412;51.350;17.056;2022-11-20T02:29:31;-4.00;74.00
68433;DHT22;55412;51.350;17.056;2022-11-20T02:32:01;-4.10;74.30
68433;DHT22;55412;51.350;17.056;2022-11-20T02:34:27;-4.10;74.40
68433;DHT22;55412;51.350;17.056;2022-11-20T02:36:54;-4.20;74.60
68433;DHT22;55412;51.350;17.056;2022-11-20T02:39:23;-4.20;74.80
68433;DHT22;55412;51.350;17.056;2022-11-20T02:41:53;-4.30;74.80
68433;DHT22;55412;51.350;17.056;2022-11-20T02:44:20;-4.30;75.00
68433;DHT22;55412;51.350;17.056;2022-11-20T02:46:46;-4.30;75.10
68433;DHT22;55412;51.350;17.056;2022-11-20T02:49:12;-4.40;75.50
68433;DHT22;55412;51.350;17.056;2022-11-20T02:51:38;-4.40;75.60
68433;DHT22;55412;51.350;17.056;2022-11-20T02:54:04;-4.40;75.40
68433;DHT22;55412;51.350;17.056;2022-11-20T02:56:30;-4.40;75.30
68433;DHT22;55412;51.350;17.056;2022-11-20T02:58:56;-4.50;75.30
68433;DHT22;55412;51.350;17.056;2022-11-20T03:01:22;-4.50;75.50
68433;DHT22;55412;51.350;17.056;2022-11-20T03:03:49;-4.50;75.70
68433;DHT22;55412;51.350;17.056;2022-11-20T03:06:16;-4.50;75.80
68433;DHT22;55412;51.350;17.056;2022-11-20T03:08:42;-4.50;75.90
68433;DHT22;55412;51.350;17.056;2022-11-20T03:11:08;-4.50;76.00
68433;DHT22;55412;51.350;17.056;2022-11-20T03:13:35;-4.40;76.10
68433;DHT22;55412;51.350;17.056;2022-11-20T03:16:08;-4.40;75.80
68433;DHT22;55412;51.350;17.056;2022-11-20T03:18:45;-4.40;75.80
68433;DHT22;55412;51.350;17.056;2022-11-20T03:21:13;-4.40;75.50
68433;DHT22;55412;51.350;17.056;2022-11-20T03:23:40;-4.40;75.30
68433;DHT22;55412;51.350;17.056;2022-11-20T03:26:15;-4.40;75.30
68433;DHT22;55412;51.350;17.056;2022-11-20T03:28:54;-4.50;75.50
68433;DHT22;55412;51.350;17.056;2022-11-20T03:31:27;-4.50;75.50
68433;DHT22;55412;51.350;17.056;2022-11-20T03:34:01;-4.50;75.10
68433;DHT22;55412;51.350;17.056;2022-11-20T03:36:28;-4.50;75.20
68433;DHT22;55412;51.350;17.056;2022-11-20T03:38:56;-4.60;75.50
68433;DHT22;55412;51.350;17.056;2022-11-20T03:41:27;-4.60;75.20
68433;DHT22;55412;51.350;17.056;2022-11-20T03:43:57;-4.60;75.40
68433;DHT22;55412;51.350;17.056;2022-11-20T03:46:24;-4.60;75.30
68433;DHT22;55412;51.350;17.056;2022-11-20T03:48:51;-4.60;75.40
68433;DHT22;55412;51.350;17.056;2022-11-20T03:51:20;-4.70;75.10
68433;DHT22;55412;51.350;17.056;2022-11-20T03:53:50;-4.60;75.10
68433;DHT22;55412;51.350;17.056;2022-11-20T03:56:19;-4.60;74.90
68433;DHT22;55412;51.350;17.056;2022-11-20T03:58:48;-4.60;74.80
68433;DHT22;55412;51.350;17.056;2022-11-20T04:01:17;-4.70;75.00
68433;DHT22;55412;51.350;17.056;2022-11-20T04:03:45;-4.70;75.30
68433;DHT22;55412;51.350;17.056;2022-11-20T04:06:16;-4.80;75.40
68433;DHT22;55412;51.350;17.056;2022-11-20T04:08:47;-4.80;75.40
68433;DHT22;55412;51.350;17.056;2022-11-20T04:11:15;-4.80;75.40
68433;DHT22;55412;51.350;17.056;2022-11-20T04:13:50;-4.80;75.50
68433;DHT22;55412;51.350;17.056;2022-11-20T04:16:18;-4.80;75.60
68433;DHT22;55412;51.350;17.056;2022-11-20T04:18:45;-4.80;75.60
68433;DHT22;55412;51.350;17.056;2022-11-20T04:21:11;-4.80;75.30
68433;DHT22;55412;51.350;17.056;2022-11-20T04:23:37;-4.80;75.10
68433;DHT22;55412;51.350;17.056;2022-11-20T04:26:08;-4.80;74.70
68433;DHT22;55412;51.350;17.056;2022-11-20T04:28:36;-4.70;74.50
68433;DHT22;55412;51.350;17.056;2022-11-20T04:31:17;-4.70;74.40
68433;DHT22;55412;51.350;17.056;2022-11-20T04:33:45;-4.60;74.10
68433;DHT22;55412;51.350;17.056;2022-11-20T04:36:16;-4.60;73.80
68433;DHT22;55412;51.350;17.056;2022-11-20T04:38:50;-4.60;73.70
68433;DHT22;55412;51.350;17.056;2022-11-20T04:41:25;-4.60;73.60
68433;DHT22;55412;51.350;17.056;2022-11-20T04:43:56;-4.50;73.30
68433;DHT22;55412;51.350;17.056;2022-11-20T04:46:29;-4.50;73.00
68433;DHT22;55412;51.350;17.056;2022-11-20T04:48:58;-4.50;73.10
68433;DHT22;55412;51.350;17.056;2022-11-20T04:51:24;-4.50;73.10
68433;DHT22;55412;51.350;17.056;2022-11-20T04:53:51;-4.50;73.20
68433;DHT22;55412;51.350;17.056;2022-11-20T04:56:17;-4.50;73.00
68433;DHT22;55412;51.350;17.056;2022-11-20T04:58:43;-4.50;72.90
68433;DHT22;55412;51.350;17.056;2022-11-20T05:01:16;-4.50;73.00
68433;DHT22;55412;51.350;17.056;2022-11-20T05:03:46;-4.60;72.80
68433;DHT22;55412;51.350;17.056;2022-11-20T05:06:14;-4.60;73.10
68433;DHT22;55412;51.350;17.056;2022-11-20T05:08:42;-4.60;73.20
68433;DHT22;55412;51.350;17.056;2022-11-20T05:11:10;-4.60;73.30
68433;DHT22;55412;51.350;17.056;2022-11-20T05:13:39;-4.60;73.30
68433;DHT22;55412;51.350;17.056;2022-11-20T05:16:13;-4.60;73.30
68433;DHT22;55412;51.350;17.056;2022-11-20T05:18:52;-4.60;73.30
68433;DHT22;55412;51.350;17.056;2022-11-20T05:21:20;-4.60;73.10
68433;DHT22;55412;51.350;17.056;2022-11-20T05:23:47;-4.60;73.20
68433;DHT22;55412;51.350;17.056;2022-11-20T05:26:21;-4.50;73.40
68433;DHT22;55412;51.350;17.056;2022-11-20T05:28:48;-4.50;73.00
68433;DHT22;55412;51.350;17.056;2022-11-20T05:31:18;-4.50;72.80
68433;DHT22;55412;51.350;17.056;2022-11-20T05:33:48;-4.40;72.70
68433;DHT22;55412;51.350;17.056;2022-11-20T05:36:14;-4.40;72.50
68433;DHT22;55412;51.350;17.056;2022-11-20T05:38:41;-4.30;72.20
68433;DHT22;55412;51.350;17.056;2022-11-20T05:41:13;-4.30;72.10
68433;DHT22;55412;51.350;17.056;2022-11-20T05:43:43;-4.30;71.60
68433;DHT22;55412;51.350;17.056;2022-11-20T05:46:12;-4.30;71.40
68433;DHT22;55412;51.350;17.056;2022-11-20T05:48:42;-4.30;71.40
68433;DHT22;55412;51.350;17.056;2022-11-20T05:51:10;-4.30;71.50
68433;DHT22;55412;51.350;17.056;2022-11-20T05:53:37;-4.20;71.50
68433;DHT22;55412;51.350;17.056;2022-11-20T05:58:36;-4.20;71.00
68433;DHT22;55412;51.350;17.056;2022-11-20T06:01:10;-4.20;71.80
68433;DHT22;55412;51.350;17.056;2022-11-20T06:03:36;-4.20;71.30
68433;DHT22;55412;51.350;17.056;2022-11-20T06:06:04;-4.40;71.50
68433;DHT22;55412;51.350;17.056;2022-11-20T06:08:31;-4.50;72.20
68433;DHT22;55412;51.350;17.056;2022-11-20T06:10:58;-4.50;72.20
68433;DHT22;55412;51.350;17.056;2022-11-20T06:13:24;-4.50;72.10
68433;DHT22;55412;51.350;17.056;2022-11-20T06:15:51;-4.50;71.90
68433;DHT22;55412;51.350;17.056;2022-11-20T06:18:18;-4.50;71.90
68433;DHT22;55412;51.350;17.056;2022-11-20T06:20:45;-4.50;71.70
68433;DHT22;55412;51.350;17.056;2022-11-20T06:23:12;-4.50;71.60
68433;DHT22;55412;51.350;17.056;2022-11-20T06:25:39;-4.50;71.80
68433;DHT22;55412;51.350;17.056;2022-11-20T06:28:06;-4.50;71.60
68433;DHT22;55412;51.350;17.056;2022-11-20T06:30:33;-4.50;71.70
68433;DHT22;55412;51.350;17.056;2022-11-20T06:32:59;-4.50;71.60
68433;DHT22;55412;51.350;17.056;2022-11-20T06:35:25;-4.50;72.10
68433;DHT22;55412;51.350;17.056;2022-11-20T06:37:51;-4.50;71.70
68433;DHT22;55412;51.350;17.056;2022-11-20T06:40:17;-4.40;71.50
68433;DHT22;55412;51.350;17.056;2022-11-20T06:42:43;-4.30;71.00
68433;DHT22;55412;51.350;17.056;2022-11-20T06:45:09;-4.20;71.00
68433;DHT22;55412;51.350;17.056;2022-11-20T06:47:35;-4.10;71.00
68433;DHT22;55412;51.350;17.056;2022-11-20T06:50:01;-4.00;70.90
68433;DHT22;55412;51.350;17.056;2022-11-20T06:52:28;-3.90;70.30
68433;DHT22;55412;51.350;17.056;2022-11-20T06:54:54;-3.70;70.00
68433;DHT22;55412;51.350;17.056;2022-11-20T06:57:20;-3.60;70.00
68433;DHT22;55412;51.350;17.056;2022-11-20T06:59:45;-3.40;69.70
68433;DHT22;55412;51.350;17.056;2022-11-20T07:02:12;-3.30;69.10
68433;DHT22;55412;51.350;17.056;2022-11-20T07:04:38;-3.20;68.50
68433;DHT22;55412;51.350;17.056;2022-11-20T07:07:05;-3.00;68.10
68433;DHT22;55412;51.350;17.056;2022-11-20T07:09:32;-2.90;67.60
68433;DHT22;55412;51.350;17.056;2022-11-20T07:11:59;-2.80;67.50
68433;DHT22;55412;51.350;17.056;2022-11-20T07:14:25;-2.70;67.00
68433;DHT22;55412;51.350;17.056;2022-11-20T07:16:51;-2.60;66.70
68433;DHT22;55412;51.350;17.056;2022-11-20T07:19:18;-2.50;66.40
68433;DHT22;55412;51.350;17.056;2022-11-20T07:21:44;-2.30;66.10
68433;DHT22;55412;51.350;17.056;2022-11-20T07:24:10;-2.00;66.30
68433;DHT22;55412;51.350;17.056;2022-11-20T07:26:35;-1.70;65.80
68433;DHT22;55412;51.350;17.056;2022-11-20T07:29:01;-1.50;64.00
68433;DHT22;55412;51.350;17.056;2022-11-20T07:31:28;-1.40;63.70
68433;DHT22;55412;51.350;17.056;2022-11-20T07:33:53;-1.30;62.00
68433;DHT22;55412;51.350;17.056;2022-11-20T07:36:20;-1.20;62.40
68433;DHT22;55412;51.350;17.056;2022-11-20T07:38:45;-1.20;62.10
68433;DHT22;55412;51.350;17.056;2022-11-20T07:41:12;-1.00;62.40
68433;DHT22;55412;51.350;17.056;2022-11-20T07:43:38;-0.90;61.80
68433;DHT22;55412;51.350;17.056;2022-11-20T07:46:04;-0.80;61.60
68433;DHT22;55412;51.350;17.056;2022-11-20T07:48:30;-0.70;61.10
68433;DHT22;55412;51.350;17.056;2022-11-20T07:50:56;-0.60;60.40
68433;DHT22;55412;51.350;17.056;2022-11-20T07:53:25;-0.60;60.60
68433;DHT22;55412;51.350;17.056;2022-11-20T07:55:51;-0.40;61.30
68433;DHT22;55412;51.350;17.056;2022-11-20T07:58:18;-0.40;60.60
68433;DHT22;55412;51.350;17.056;2022-11-20T08:00:45;-0.30;59.60
68433;DHT22;55412;51.350;17.056;2022-11-20T08:03:12;-0.20;59.60
68433;DHT22;55412;51.350;17.056;2022-11-20T08:05:38;0.00;59.60
68433;DHT22;55412;51.350;17.056;2022-11-20T08:08:05;0.00;59.40
68433;DHT22;55412;51.350;17.056;2022-11-20T08:10:32;0.10;59.20
68433;DHT22;55412;51.350;17.056;2022-11-20T08:12:58;0.20;59.00
68433;DHT22;55412;51.350;17.056;2022-11-20T08:15:50;0.30;58.90
68433;DHT22;55412;51.350;17.056;2022-11-20T08:18:17;0.40;58.40
68433;DHT22;55412;51.350;17.056;2022-11-20T08:20:44;0.50;57.60
68433;DHT22;55412;51.350;17.056;2022-11-20T08:23:10;0.70;58.20
68433;DHT22;55412;51.350;17.056;2022-11-20T08:25:38;0.70;56.60
68433;DHT22;55412;51.350;17.056;2022-11-20T08:28:06;0.60;56.50
68433;DHT22;55412;51.350;17.056;2022-11-20T08:30:34;0.50;56.40
68433;DHT22;55412;51.350;17.056;2022-11-20T08:33:06;0.50;56.40
68433;DHT22;55412;51.350;17.056;2022-11-20T08:35:37;0.50;56.50
68433;DHT22;55412;51.350;17.056;2022-11-20T08:38:05;0.60;55.50
68433;DHT22;55412;51.350;17.056;2022-11-20T08:40:32;0.70;56.10
68433;DHT22;55412;51.350;17.056;2022-11-20T08:42:59;0.90;55.30
68433;DHT22;55412;51.350;17.056;2022-11-20T08:45:26;1.00;56.20
68433;DHT22;55412;51.350;17.056;2022-11-20T08:47:52;1.00;55.20
68433;DHT22;55412;51.350;17.056;2022-11-20T08:50:18;1.20;54.90
68433;DHT22;55412;51.350;17.056;2022-11-20T08:52:44;1.30;54.50
68433;DHT22;55412;51.350;17.056;2022-11-20T08:55:10;1.30;54.70
68433;DHT22;55412;51.350;17.056;2022-11-20T08:57:37;1.50;54.60
68433;DHT22;55412;51.350;17.056;2022-11-20T09:00:06;1.80;54.90
68433;DHT22;55412;51.350;17.056;2022-11-20T09:02:33;2.00;54.60
68433;DHT22;55412;51.350;17.056;2022-11-20T09:04:59;2.10;53.70
68433;DHT22;55412;51.350;17.056;2022-11-20T09:07:28;2.00;53.40
68433;DHT22;55412;51.350;17.056;2022-11-20T09:09:54;1.90;53.50
68433;DHT22;55412;51.350;17.056;2022-11-20T09:12:20;1.90;53.30
68433;DHT22;55412;51.350;17.056;2022-11-20T09:14:47;1.90;54.10
68433;DHT22;55412;51.350;17.056;2022-11-20T09:17:13;1.90;53.90
68433;DHT22;55412;51.350;17.056;2022-11-20T09:19:40;1.70;53.50
68433;DHT22;55412;51.350;17.056;2022-11-20T09:22:07;1.60;53.50
68433;DHT22;55412;51.350;17.056;2022-11-20T09:24:33;1.60;54.60
68433;DHT22;55412;51.350;17.056;2022-11-20T09:27:03;1.60;53.50
68433;DHT22;55412;51.350;17.056;2022-11-20T09:29:30;1.70;53.30
68433;DHT22;55412;51.350;17.056;2022-11-20T09:31:56;1.70;53.70
68433;DHT22;55412;51.350;17.056;2022-11-20T09:34:22;1.70;54.10
68433;DHT22;55412;51.350;17.056;2022-11-20T09:36:48;1.50;54.80
68433;DHT22;55412;51.350;17.056;2022-11-20T09:39:14;1.50;53.40
68433;DHT22;55412;51.350;17.056;2022-11-20T09:41:55;1.40;54.40
68433;DHT22;55412;51.350;17.056;2022-11-20T09:56:23;1.80;54.50
68433;DHT22;55412;51.350;17.056;2022-11-20T09:58:55;2.10;53.70
68433;DHT22;55412;51.350;17.056;2022-11-20T10:01:29;2.40;52.40
68433;DHT22;55412;51.350;17.056;2022-11-20T10:04:10;2.50;52.80
68433;DHT22;55412;51.350;17.056;2022-11-20T10:06:47;2.50;51.80
68433;DHT22;55412;51.350;17.056;2022-11-20T10:09:27;2.80;51.90
68433;DHT22;55412;51.350;17.056;2022-11-20T10:25:43;3.70;47.10
68433;DHT22;55412;51.350;17.056;2022-11-20T10:31:33;3.90;47.50
68433;DHT22;55412;51.350;17.056;2022-11-20T10:34:14;4.10;45.00
68433;DHT22;55412;51.350;17.056;2022-11-20T10:36:47;4.20;44.30
68433;DHT22;55412;51.350;17.056;2022-11-20T10:39:36;4.20;44.30
68433;DHT22;55412;51.350;17.056;2022-11-20T10:42:18;4.20;43.90
68433;DHT22;55412;51.350;17.056;2022-11-20T10:45:31;4.30;45.20
68433;DHT22;55412;51.350;17.056;2022-11-20T10:48:15;4.40;45.30
68433;DHT22;55412;51.350;17.056;2022-11-20T10:56:34;4.70;45.00
68433;DHT22;55412;51.350;17.056;2022-11-20T10:59:26;4.80;44.60
68433;DHT22;55412;51.350;17.056;2022-11-20T11:02:23;4.80;43.40
68433;DHT22;55412;51.350;17.056;2022-11-20T11:04:55;4.80;43.50
68433;DHT22;55412;51.350;17.056;2022-11-20T11:07:38;4.90;43.70
68433;DHT22;55412;51.350;17.056;2022-11-20T11:10:36;4.90;42.90
68433;DHT22;55412;51.350;17.056;2022-11-20T11:13:07;4.80;43.30
68433;DHT22;55412;51.350;17.056;2022-11-20T11:15:48;4.60;44.40
68433;DHT22;55412;51.350;17.056;2022-11-20T11:18:27;4.60;44.40
68433;DHT22;55412;51.350;17.056;2022-11-20T11:20:56;4.60;45.10
68433;DHT22;55412;51.350;17.056;2022-11-20T11:26:18;4.90;45.30
68433;DHT22;55412;51.350;17.056;2022-11-20T11:28:59;4.80;44.60
68433;DHT22;55412;51.350;17.056;2022-11-20T11:31:34;5.00;45.80
68433;DHT22;55412;51.350;17.056;2022-11-20T11:34:17;5.30;46.00
68433;DHT22;55412;51.350;17.056;2022-11-20T11:36:56;5.40;46.10
68433;DHT22;55412;51.350;17.056;2022-11-20T11:39:24;5.50;45.10
68433;DHT22;55412;51.350;17.056;2022-11-20T11:41:52;5.60;45.30
68433;DHT22;55412;51.350;17.056;2022-11-20T11:44:33;5.70;44.70
68433;DHT22;55412;51.350;17.056;2022-11-20T11:47:51;5.70;44.60
68433;DHT22;55412;51.350;17.056;2022-11-20T11:50:22;5.70;44.90
68433;DHT22;55412;51.350;17.056;2022-11-20T11:53:16;5.80;44.80
68433;DHT22;55412;51.350;17.056;2022-11-20T11:56:07;5.90;43.40
68433;DHT22;55412;51.350;17.056;2022-11-20T12:04:00;6.20;43.50
68433;DHT22;55412;51.350;17.056;2022-11-20T12:06:31;6.50;43.50
68433;DHT22;55412;51.350;17.056;2022-11-20T12:09:08;6.50;43.30
68433;DHT22;55412;51.350;17.056;2022-11-20T12:12:04;6.20;42.30
68433;DHT22;55412;51.350;17.056;2022-11-20T12:14:37;5.90;42.90
68433;DHT22;55412;51.350;17.056;2022-11-20T12:17:05;5.90;43.10
68433;DHT22;55412;51.350;17.056;2022-11-20T12:19:36;5.80;43.40
68433;DHT22;55412;51.350;17.056;2022-11-20T12:22:53;5.60;43.70
68433;DHT22;55412;51.350;17.056;2022-11-20T12:25:27;5.40;43.20
68433;DHT22;55412;51.350;17.056;2022-11-20T12:28:09;5.00;44.80
68433;DHT22;55412;51.350;17.056;2022-11-20T12:31:21;5.00;45.10
68433;DHT22;55412;51.350;17.056;2022-11-20T12:57:29;2.80;49.90
68433;DHT22;55412;51.350;17.056;2022-11-20T13:00:10;2.70;49.80
68433;DHT22;55412;51.350;17.056;2022-11-20T13:05:21;2.50;50.80
68433;DHT22;55412;51.350;17.056;2022-11-20T13:07:53;2.50;51.20
68433;DHT22;55412;51.350;17.056;2022-11-20T13:13:31;2.30;51.60
68433;DHT22;55412;51.350;17.056;2022-11-20T13:18:51;2.20;52.30
68433;DHT22;55412;51.350;17.056;2022-11-20T13:21:20;2.00;53.60
68433;DHT22;55412;51.350;17.056;2022-11-20T13:23:47;2.00;53.80
68433;DHT22;55412;51.350;17.056;2022-11-20T13:26:19;1.90;53.10
68433;DHT22;55412;51.350;17.056;2022-11-20T13:29:01;1.90;54.00
68433;DHT22;55412;51.350;17.056;2022-11-20T13:31:35;1.80;55.10
68433;DHT22;55412;51.350;17.056;2022-11-20T13:34:06;1.80;55.10
68433;DHT22;55412;51.350;17.056;2022-11-20T13:36:33;1.80;55.70
68433;DHT22;55412;51.350;17.056;2022-11-20T13:39:00;1.70;54.80
68433;DHT22;55412;51.350;17.056;2022-11-20T13:41:35;1.80;54.50
68433;DHT22;55412;51.350;17.056;2022-11-20T13:44:14;1.80;55.30
68433;DHT22;55412;51.350;17.056;2022-11-20T13:47:01;1.70;55.10
68433;DHT22;55412;51.350;17.056;2022-11-20T13:49:34;1.70;55.10
68433;DHT22;55412;51.350;17.056;2022-11-20T13:55:32;1.60;56.00
68433;DHT22;55412;51.350;17.056;2022-11-20T14:01:17;1.40;55.80
68433;DHT22;55412;51.350;17.056;2022-11-20T14:03:47;1.30;57.20
68433;DHT22;55412;51.350;17.056;2022-11-20T14:06:43;1.30;57.20
68433;DHT22;55412;51.350;17.056;2022-11-20T14:09:27;1.30;57.40
68433;DHT22;55412;51.350;17.056;2022-11-20T14:11:54;1.20;57.70
68433;DHT22;55412;51.350;17.056;2022-11-20T14:14:23;1.30;58.10
68433;DHT22;55412;51.350;17.056;2022-11-20T14:16:51;1.30;58.50
68433;DHT22;55412;51.350;17.056;2022-11-20T14:21:48;1.30;58.50
68433;DHT22;55412;51.350;17.056;2022-11-20T14:24:21;1.30;58.40
68433;DHT22;55412;51.350;17.056;2022-11-20T14:26:50;1.30;59.00
68433;DHT22;55412;51.350;17.056;2022-11-20T14:29:19;1.30;59.00
68433;DHT22;55412;51.350;17.056;2022-11-20T14:31:52;1.20;59.00
68433;DHT22;55412;51.350;17.056;2022-11-20T14:34:22;1.20;59.10
68433;DHT22;55412;51.350;17.056;2022-11-20T14:36:59;1.10;59.60
68433;DHT22;55412;51.350;17.056;2022-11-20T14:39:34;1.10;60.10
68433;DHT22;55412;51.350;17.056;2022-11-20T14:42:10;1.00;60.10
68433;DHT22;55412;51.350;17.056;2022-11-20T14:44:41;1.00;59.60
68433;DHT22;55412;51.350;17.056;2022-11-20T14:47:12;1.00;59.80
68433;DHT22;55412;51.350;17.056;2022-11-20T14:49:39;1.00;59.70
68433;DHT22;55412;51.350;17.056;2022-11-20T14:52:21;1.00;59.70
68433;DHT22;55412;51.350;17.056;2022-11-20T14:54:53;1.00;60.20
68433;DHT22;55412;51.350;17.056;2022-11-20T15:02:48;0.80;61.00
68433;DHT22;55412;51.350;17.056;2022-11-20T15:05:18;0.70;61.20
68433;DHT22;55412;51.350;17.056;2022-11-20T15:08:12;0.70;61.60
68433;DHT22;55412;51.350;17.056;2022-11-20T15:10:49;0.60;62.50
68433;DHT22;55412;51.350;17.056;2022-11-20T15:15:56;0.50;62.50
68433;DHT22;55412;51.350;17.056;2022-11-20T15:18:37;0.40;62.90
68433;DHT22;55412;51.350;17.056;2022-11-20T15:21:15;0.30;63.00
68433;DHT22;55412;51.350;17.056;2022-11-20T15:23:42;0.20;63.40
68433;DHT22;55412;51.350;17.056;2022-11-20T15:26:11;0.30;63.30
68433;DHT22;55412;51.350;17.056;2022-11-20T15:28:43;0.30;63.00
68433;DHT22;55412;51.350;17.056;2022-11-20T15:31:15;0.30;62.90
68433;DHT22;55412;51.350;17.056;2022-11-20T15:33:43;0.20;62.00
68433;DHT22;55412;51.350;17.056;2022-11-20T15:36:09;0.00;62.10
68433;DHT22;55412;51.350;17.056;2022-11-20T15:38:36;-0.10;64.60
68433;DHT22;55412;51.350;17.056;2022-11-20T15:41:02;-0.20;64.90
68433;DHT22;55412;51.350;17.056;2022-11-20T15:43:28;-0.20;65.10
68433;DHT22;55412;51.350;17.056;2022-11-20T15:45:58;-0.30;65.00
68433;DHT22;55412;51.350;17.056;2022-11-20T15:48:29;-0.30;65.40
68433;DHT22;55412;51.350;17.056;2022-11-20T15:50:59;-0.40;65.50
68433;DHT22;55412;51.350;17.056;2022-11-20T15:53:28;-0.30;65.20
68433;DHT22;55412;51.350;17.056;2022-11-20T15:55:54;-0.30;65.00
68433;DHT22;55412;51.350;17.056;2022-11-20T15:58:20;-0.30;65.20
68433;DHT22;55412;51.350;17.056;2022-11-20T16:00:48;-0.40;66.00
68433;DHT22;55412;51.350;17.056;2022-11-20T16:03:15;-0.50;66.40
68433;DHT22;55412;51.350;17.056;2022-11-20T16:05:42;-0.60;67.30
68433;DHT22;55412;51.350;17.056;2022-11-20T16:08:09;-0.70;67.50
68433;DHT22;55412;51.350;17.056;2022-11-20T16:10:36;-0.70;67.40
68433;DHT22;55412;51.350;17.056;2022-11-20T16:13:03;-0.80;67.50
68433;DHT22;55412;51.350;17.056;2022-11-20T16:15:53;-0.80;67.50
68433;DHT22;55412;51.350;17.056;2022-11-20T16:18:23;-0.90;67.70
68433;DHT22;55412;51.350;17.056;2022-11-20T16:20:51;-0.90;67.90
68433;DHT22;55412;51.350;17.056;2022-11-20T16:23:19;-1.00;67.90
68433;DHT22;55412;51.350;17.056;2022-11-20T16:25:47;-1.00;68.10
68433;DHT22;55412;51.350;17.056;2022-11-20T16:28:14;-1.10;68.10
68433;DHT22;55412;51.350;17.056;2022-11-20T16:30:41;-1.10;68.40
68433;DHT22;55412;51.350;17.056;2022-11-20T16:33:15;-1.20;68.20
68433;DHT22;55412;51.350;17.056;2022-11-20T16:35:43;-1.20;68.50
68433;DHT22;55412;51.350;17.056;2022-11-20T16:38:10;-1.20;68.90
68433;DHT22;55412;51.350;17.056;2022-11-20T16:40:36;-1.30;68.90
68433;DHT22;55412;51.350;17.056;2022-11-20T16:43:14;-1.30;68.90
68433;DHT22;55412;51.350;17.056;2022-11-20T16:45:43;-1.30;68.90
68433;DHT22;55412;51.350;17.056;2022-11-20T16:48:15;-1.40;68.70
68433;DHT22;55412;51.350;17.056;2022-11-20T16:50:47;-1.40;68.90
68433;DHT22;55412;51.350;17.056;2022-11-20T16:53:15;-1.50;69.10
68433;DHT22;55412;51.350;17.056;2022-11-20T16:55:41;-1.50;69.30
68433;DHT22;55412;51.350;17.056;2022-11-20T16:58:07;-1.40;69.10
68433;DHT22;55412;51.350;17.056;2022-11-20T17:00:38;-1.40;68.90
68433;DHT22;55412;51.350;17.056;2022-11-20T17:03:05;-1.40;68.70
68433;DHT22;55412;51.350;17.056;2022-11-20T17:05:33;-1.30;68.70
68433;DHT22;55412;51.350;17.056;2022-11-20T17:08:00;-1.30;68.60
68433;DHT22;55412;51.350;17.056;2022-11-20T17:10:26;-1.30;68.50
68433;DHT22;55412;51.350;17.056;2022-11-20T17:12:52;-1.30;68.50
68433;DHT22;55412;51.350;17.056;2022-11-20T17:15:18;-1.30;68.70
68433;DHT22;55412;51.350;17.056;2022-11-20T17:17:44;-1.20;68.80
68433;DHT22;55412;51.350;17.056;2022-11-20T17:20:10;-1.20;68.80
68433;DHT22;55412;51.350;17.056;2022-11-20T17:22:37;-1.20;68.80
68433;DHT22;55412;51.350;17.056;2022-11-20T17:25:04;-1.20;68.80
68433;DHT22;55412;51.350;17.056;2022-11-20T17:27:30;-1.20;68.70
68433;DHT22;55412;51.350;17.056;2022-11-20T17:29:56;-1.20;68.20